Time;durP1;ratioP1;P1;durP2;ratioP2;P2;SDS_P1;SDS_P2;PMS_P1;PMS_P2;Temp;Humidity;BMP_temperature;BMP_pressure;BME280_temperature;BME280_humidity;BME280_pressure;Samples;Min_cycle;Max_cycle;Signal;HPM_P1;HPM_P2
2021/01/16 15:52:02;;;;;;;4.63;4.00;;;19.80;38.10;;;;;;5095947;27;21024;-82
2021/01/16 15:54:28;;;;;;;4.63;3.30;;;20.20;37.60;;;;;;5090269;28;20447;-82
2021/01/16 15:56:54;;;;;;;3.27;2.97;;;20.30;37.60;;;;;;5091006;28;20806;-82
2021/01/16 15:59:20;;;;;;;5.70;3.40;;;20.30;37.50;;;;;;5068071;28;20457;-82
2021/01/16 16:01:45;;;;;;;3.63;3.37;;;20.40;37.50;;;;;;5072133;28;20194;-83
2021/01/16 16:04:16;;;;;;;10.80;3.97;;;20.40;37.50;;;;;;5080859;28;60405;-83
2021/01/16 16:06:42;;;;;;;4.73;3.30;;;20.50;37.60;;;;;;5090399;28;20252;-82
2021/01/16 16:09:08;;;;;;;4.17;3.30;;;20.50;37.50;;;;;;5090816;28;20400;-82
2021/01/16 16:11:37;;;;;;;4.10;3.23;;;20.50;37.60;;;;;;5090774;28;20456;-82
2021/01/16 16:14:04;;;;;;;3.70;3.13;;;20.60;37.60;;;;;;5090941;28;20483;-82
2021/01/16 16:16:30;;;;;;;3.97;3.67;;;20.60;37.50;;;;;;5090740;28;20400;-83
2021/01/16 16:18:56;;;;;;;4.93;3.87;;;20.60;37.60;;;;;;5090289;28;20865;-83
2021/01/16 16:21:22;;;;;;;3.33;3.03;;;20.60;37.60;;;;;;5089876;28;20519;-82
2021/01/16 16:23:47;;;;;;;5.17;3.17;;;20.60;37.50;;;;;;5088921;28;20565;-82
2021/01/16 16:35:21;;;;;;;3.23;3.03;;;20.60;37.20;;;;;;5047416;27;20532;-86
2021/01/16 16:37:53;;;;;;;3.93;3.57;;;20.60;37.50;;;;;;5062472;28;20916;-85
2021/01/16 16:40:21;;;;;;;4.33;3.23;;;20.60;37.30;;;;;;5065955;28;20175;-84
2021/01/16 16:42:48;;;;;;;4.63;3.27;;;20.60;37.30;;;;;;5024857;28;20876;-85
2021/01/16 16:45:14;;;;;;;5.57;3.57;;;20.60;37.40;;;;;;5040820;28;20462;-84
2021/01/16 16:47:44;;;;;;;4.53;3.97;;;20.60;37.50;;;;;;5048367;28;20424;-86
2021/01/16 16:50:10;;;;;;;4.00;3.13;;;20.60;37.40;;;;;;5052077;28;20409;-85
2021/01/16 16:52:35;;;;;;;3.97;3.60;;;20.60;37.40;;;;;;5054502;28;20447;-85
2021/01/16 16:55:05;;;;;;;3.73;3.40;;;20.60;37.40;;;;;;5049718;28;20469;-85
2021/01/16 16:57:31;;;;;;;3.97;3.33;;;20.60;37.40;;;;;;5049033;28;20801;-86
2021/01/16 16:59:57;;;;;;;5.70;3.53;;;20.70;37.30;;;;;;5052247;28;20416;-87
2021/01/16 17:02:23;;;;;;;4.63;3.53;;;20.70;37.30;;;;;;5051478;28;20402;-87
2021/01/16 17:04:48;;;;;;;4.27;3.70;;;20.70;37.30;;;;;;5051033;28;20696;-87
2021/01/16 17:07:17;;;;;;;4.80;3.90;;;20.70;37.30;;;;;;5048543;28;20429;-87
2021/01/16 17:09:43;;;;;;;5.40;3.60;;;20.70;37.30;;;;;;5050037;28;20195;-83
2021/01/16 17:12:09;;;;;;;3.70;3.40;;;20.80;37.40;;;;;;5048640;28;20886;-85
2021/01/16 17:14:34;;;;;;;10.57;4.07;;;20.80;37.20;;;;;;5049381;28;20712;-85
2021/01/16 17:17:00;;;;;;;3.80;3.40;;;20.80;37.30;;;;;;5049366;28;20172;-85
2021/01/16 17:19:26;;;;;;;5.90;3.70;;;20.70;37.20;;;;;;5030933;28;20298;-83
2021/01/16 17:21:52;;;;;;;4.57;4.17;;;20.70;37.30;;;;;;5027787;28;20250;-85
2021/01/16 17:24:18;;;;;;;6.37;3.80;;;20.70;37.30;;;;;;5025305;28;20611;-82
2021/01/16 17:26:43;;;;;;;4.70;4.30;;;20.70;37.30;;;;;;5031555;28;20495;-83
2021/01/16 17:29:09;;;;;;;4.87;3.90;;;20.70;37.20;;;;;;5020222;28;20223;-83
2021/01/16 17:31:41;;;;;;;3.73;3.40;;;20.60;37.20;;;;;;5031198;28;20689;-86
2021/01/16 17:34:07;;;;;;;3.90;3.70;;;20.70;37.30;;;;;;5050034;28;20218;-85
2021/01/16 17:36:34;;;;;;;5.03;4.30;;;20.70;37.30;;;;;;5042911;28;20458;-84
2021/01/16 17:38:59;;;;;;;5.30;3.47;;;20.60;37.30;;;;;;5042210;28;20631;-85
2021/01/16 17:41:51;;;;;;;4.43;4.03;;;20.70;37.30;;;;;;5050851;28;20532;-88
2021/01/16 17:44:17;;;;;;;4.10;3.80;;;20.70;37.30;;;;;;5043883;28;20218;-88
2021/01/16 17:46:44;;;;;;;5.47;3.87;;;20.60;37.20;;;;;;5033590;28;20446;-87
2021/01/16 17:49:10;;;;;;;4.03;3.77;;;20.60;37.30;;;;;;5012619;28;20454;-88
2021/01/16 17:51:45;;;;;;;3.83;3.53;;;20.60;37.60;;;;;;4963507;28;20470;-86
2021/01/16 17:54:11;;;;;;;4.17;3.60;;;20.60;37.30;;;;;;5005241;28;20462;-85
2021/01/16 17:56:37;;;;;;;4.37;3.37;;;20.60;37.20;;;;;;4997179;28;21006;-85
2021/01/16 17:59:04;;;;;;;4.10;3.80;;;20.60;37.20;;;;;;4998039;28;20444;-82
2021/01/16 18:01:41;;;;;;;4.13;3.60;;;20.60;37.10;;;;;;4998886;28;20231;-82
2021/01/16 18:04:08;;;;;;;5.20;3.30;;;20.60;37.10;;;;;;4996576;28;20547;-82
2021/01/16 18:06:34;;;;;;;4.33;3.93;;;20.70;37.10;;;;;;4997821;28;20449;-81
2021/01/16 18:09:00;;;;;;;14.03;5.77;;;20.70;37.20;;;;;;4998009;28;20505;-81
2021/01/16 18:11:26;;;;;;;14.47;6.43;;;20.70;37.50;;;;;;4998515;28;20439;-82
2021/01/16 18:13:53;;;;;;;14.50;6.37;;;20.70;37.60;;;;;;4997729;28;20227;-82
2021/01/16 18:16:19;;;;;;;19.20;6.73;;;20.80;37.70;;;;;;4998414;28;20805;-83
2021/01/16 18:18:45;;;;;;;28.33;8.17;;;20.80;37.70;;;;;;4999336;28;20522;-81
2021/01/16 18:21:10;;;;;;;15.60;7.50;;;20.80;37.80;;;;;;5000437;28;20466;-81
2021/01/16 18:23:36;;;;;;;19.93;7.23;;;20.80;37.80;;;;;;4999282;28;20459;-81
2021/01/16 18:26:07;;;;;;;17.17;8.07;;;20.80;37.80;;;;;;4997740;28;20423;-79
2021/01/16 18:28:33;;;;;;;12.57;7.43;;;20.80;37.90;;;;;;5005914;28;20295;-79
2021/01/16 18:30:59;;;;;;;17.73;7.60;;;20.80;37.80;;;;;;5027782;28;20429;-80
2021/01/16 18:33:25;;;;;;;20.10;7.37;;;20.80;37.90;;;;;;5018649;28;20450;-82
2021/01/16 18:36:00;;;;;;;12.97;7.33;;;20.80;38.00;;;;;;5034634;28;20533;-82
2021/01/16 18:38:28;;;;;;;17.47;7.70;;;20.90;38.30;;;;;;5036515;28;20500;-81
2021/01/16 18:40:53;;;;;;;16.97;8.40;;;20.80;38.50;;;;;;5035934;28;20414;-82
2021/01/16 18:43:19;;;;;;;17.83;8.67;;;20.80;38.50;;;;;;5038609;28;20445;-80
2021/01/16 18:45:45;;;;;;;12.70;7.43;;;20.80;38.80;;;;;;5053595;28;20176;-81
2021/01/16 18:48:11;;;;;;;14.27;7.63;;;20.80;38.90;;;;;;5041614;28;20239;-81
2021/01/16 18:50:36;;;;;;;20.23;7.90;;;20.80;39.00;;;;;;5039874;28;20164;-81
2021/01/16 18:53:08;;;;;;;11.63;6.90;;;20.70;38.90;;;;;;5041181;28;20453;-80
2021/01/16 18:55:34;;;;;;;14.43;6.90;;;20.70;39.00;;;;;;5037617;28;20670;-81
2021/01/16 18:57:59;;;;;;;12.93;6.50;;;20.70;39.00;;;;;;5038353;28;20485;-79
2021/01/16 19:00:25;;;;;;;20.60;8.40;;;20.70;39.00;;;;;;5038090;28;20528;-79
2021/01/16 19:02:55;;;;;;;17.90;7.40;;;20.70;38.80;;;;;;5036600;28;20164;-78
2021/01/16 19:05:20;;;;;;;13.43;7.10;;;20.70;38.80;;;;;;5036594;28;20227;-79
2021/01/16 19:07:46;;;;;;;16.20;6.40;;;20.70;38.80;;;;;;5037698;28;20930;-79
2021/01/16 19:10:12;;;;;;;8.00;5.27;;;20.70;38.80;;;;;;5037486;28;20171;-80
2021/01/16 19:12:37;;;;;;;14.77;6.47;;;20.70;38.80;;;;;;5037722;28;20580;-79
2021/01/16 19:15:04;;;;;;;15.37;7.50;;;20.70;38.70;;;;;;5035990;28;20441;-80
2021/01/16 19:17:29;;;;;;;14.10;7.07;;;20.70;38.70;;;;;;5036292;28;20309;-80
2021/01/16 19:19:55;;;;;;;14.50;7.70;;;20.70;38.70;;;;;;5038321;28;20462;-80
2021/01/16 19:22:20;;;;;;;15.00;7.30;;;20.70;38.70;;;;;;5039227;28;20180;-80
2021/01/16 19:24:46;;;;;;;12.63;6.30;;;20.70;38.70;;;;;;5038086;28;20207;-81
2021/01/16 19:27:11;;;;;;;13.23;6.80;;;20.70;38.70;;;;;;5038018;28;20172;-81
2021/01/16 19:29:37;;;;;;;13.37;6.87;;;20.70;38.70;;;;;;5036549;28;20198;-80
2021/01/16 19:32:06;;;;;;;11.00;6.10;;;20.70;38.70;;;;;;5051453;28;20211;-81
2021/01/16 19:34:32;;;;;;;10.50;6.13;;;20.70;38.60;;;;;;5036275;28;20208;-81
2021/01/16 19:36:57;;;;;;;8.83;5.47;;;20.70;38.60;;;;;;5035103;28;20415;-81
2021/01/16 19:39:24;;;;;;;11.30;5.33;;;20.70;38.60;;;;;;5036125;28;20171;-81
2021/01/16 19:41:52;;;;;;;12.67;6.40;;;20.70;38.60;;;;;;5035326;28;20194;-81
2021/01/16 19:44:20;;;;;;;8.37;5.70;;;20.70;38.60;;;;;;5037384;28;20461;-81
2021/01/16 19:46:47;;;;;;;10.20;5.97;;;20.70;38.60;;;;;;5020865;28;20450;-80
2021/01/16 19:49:13;;;;;;;8.10;5.47;;;20.70;38.80;;;;;;5018537;28;20434;-80
2021/01/16 19:51:41;;;;;;;9.63;5.40;;;20.70;38.90;;;;;;5035392;28;20434;-81
2021/01/16 19:54:07;;;;;;;11.13;6.17;;;20.70;38.90;;;;;;5036767;28;20431;-80
